createdAt,value
2019-05-11T00:01:36.588Z,11.97
2019-05-11T00:04:04.040Z,14.27
2019-05-11T00:06:31.514Z,12.67
2019-05-11T00:08:59.096Z,14.37
2019-05-11T00:11:27.770Z,14.47
2019-05-11T00:13:55.342Z,12.80
2019-05-11T00:16:22.846Z,13.83
2019-05-11T00:18:50.406Z,12.87
2019-05-11T00:21:17.851Z,13.17
2019-05-11T00:23:45.425Z,14.70
2019-05-11T00:26:13.085Z,11.87
2019-05-11T00:28:42.334Z,13.80
2019-05-11T00:31:11.793Z,13.53
2019-05-11T00:33:39.229Z,14.73
2019-05-11T00:36:06.779Z,12.23
2019-05-11T00:38:34.249Z,13.17
2019-05-11T00:41:01.694Z,12.97
2019-05-11T00:43:29.188Z,13.63
2019-05-11T00:45:56.659Z,13.23
2019-05-11T00:48:24.152Z,12.63
2019-05-11T00:50:51.698Z,14.13
2019-05-11T00:53:19.263Z,11.27
2019-05-11T00:55:46.747Z,12.43
2019-05-11T00:58:14.214Z,13.10
2019-05-11T01:00:41.799Z,12.83
2019-05-11T01:03:09.368Z,11.97
2019-05-11T01:05:36.940Z,12.13
2019-05-11T01:08:04.526Z,13.57
2019-05-11T01:10:41.720Z,13.37
2019-05-11T01:13:01.337Z,11.57
2019-05-11T01:15:28.794Z,13.27
2019-05-11T01:18:11.730Z,11.50
2019-05-11T01:20:39.344Z,11.10
2019-05-11T01:23:06.957Z,12.10
2019-05-11T01:25:34.659Z,11.70
2019-05-11T01:28:02.244Z,11.13
2019-05-11T01:30:29.864Z,13.43
2019-05-11T01:32:57.585Z,11.50
2019-05-11T01:35:25.234Z,11.00
2019-05-11T01:37:52.850Z,12.30
2019-05-11T01:40:20.541Z,12.30
2019-05-11T01:42:48.173Z,12.10
2019-05-11T01:45:16.124Z,13.50
2019-05-11T01:47:43.844Z,11.93
2019-05-11T01:50:11.606Z,11.33
2019-05-11T01:52:39.188Z,13.47
2019-05-11T01:55:06.880Z,12.27
2019-05-11T01:57:34.540Z,11.70
2019-05-11T02:00:02.230Z,13.23
2019-05-11T02:02:29.832Z,13.53
2019-05-11T02:05:15.816Z,13.97
2019-05-11T02:07:43.398Z,13.37
2019-05-11T02:10:12.820Z,14.53
2019-05-11T02:12:40.576Z,12.83
2019-05-11T02:15:08.189Z,13.80
2019-05-11T02:17:37.156Z,15.23
2019-05-11T02:20:04.825Z,15.37
2019-05-11T02:22:32.430Z,18.20
2019-05-11T02:25:01.430Z,16.57
2019-05-11T02:27:29.269Z,14.90
2019-05-11T02:29:56.992Z,17.03
2019-05-11T02:32:24.607Z,18.80
2019-05-11T02:34:52.270Z,21.50
2019-05-11T02:37:19.936Z,21.80
2019-05-11T02:39:47.597Z,21.17
2019-05-11T02:42:15.525Z,18.93
2019-05-11T02:44:43.277Z,19.70
2019-05-11T02:47:10.895Z,18.60
2019-05-11T02:49:38.506Z,19.57
2019-05-11T02:52:06.518Z,18.10
2019-05-11T02:54:34.420Z,18.70
2019-05-11T02:57:02.049Z,16.53
2019-05-11T02:59:30.148Z,15.63
2019-05-11T03:01:57.892Z,15.83
2019-05-11T03:04:25.548Z,15.27
2019-05-11T03:06:53.279Z,17.20
2019-05-11T03:09:20.899Z,16.90
2019-05-11T03:11:55.856Z,17.83
2019-05-11T03:14:17.934Z,17.27
2019-05-11T03:16:47.371Z,18.23
2019-05-11T03:19:16.147Z,16.23
2019-05-11T03:21:43.756Z,17.30
2019-05-11T03:24:11.364Z,18.03
2019-05-11T03:26:38.904Z,18.73
2019-05-11T03:29:06.518Z,19.93
2019-05-11T03:31:34.290Z,16.27
2019-05-11T03:34:01.855Z,14.80
2019-05-11T03:36:29.510Z,15.90
2019-05-11T03:38:57.126Z,15.37
2019-05-11T03:41:24.769Z,16.77
2019-05-11T03:43:52.397Z,15.63
2019-05-11T03:46:20.011Z,17.23
2019-05-11T03:48:47.722Z,17.07
2019-05-11T03:51:15.342Z,17.63
2019-05-11T03:53:42.964Z,17.70
2019-05-11T03:56:10.659Z,19.87
2019-05-11T03:58:38.373Z,17.97
2019-05-11T04:01:05.942Z,18.50
2019-05-11T04:03:33.595Z,16.23
2019-05-11T04:06:02.175Z,17.67
2019-05-11T04:08:29.809Z,15.80
2019-05-11T04:10:58.533Z,15.70
2019-05-11T04:13:26.223Z,15.20
2019-05-11T04:15:53.948Z,12.87
2019-05-11T04:18:21.602Z,13.80
2019-05-11T04:20:49.301Z,11.77
2019-05-11T04:23:16.889Z,12.37
2019-05-11T04:25:44.499Z,11.17
2019-05-11T04:28:12.151Z,13.83
2019-05-11T04:30:39.731Z,11.63
2019-05-11T04:33:07.298Z,11.93
2019-05-11T04:35:35.079Z,11.73
2019-05-11T04:38:02.694Z,11.70
2019-05-11T04:40:30.303Z,11.83
2019-05-11T04:42:58.005Z,12.23
2019-05-11T04:45:25.702Z,14.17
2019-05-11T04:47:53.277Z,13.50
2019-05-11T04:50:20.798Z,12.63
2019-05-11T04:52:48.417Z,11.37
2019-05-11T04:55:16.009Z,13.40
2019-05-11T04:57:43.588Z,11.27
2019-05-11T05:00:11.593Z,11.93
2019-05-11T05:02:39.195Z,13.00
2019-05-11T05:05:07.001Z,12.10
2019-05-11T05:07:34.619Z,12.17
2019-05-11T05:10:02.267Z,11.90
2019-05-11T05:12:31.029Z,12.40
2019-05-11T05:14:59.776Z,14.13
2019-05-11T05:17:27.397Z,15.53
2019-05-11T05:19:55.032Z,12.53
2019-05-11T05:22:22.640Z,13.70
2019-05-11T05:24:50.347Z,12.10
2019-05-11T05:27:18.069Z,15.43
2019-05-11T05:29:45.690Z,14.00
2019-05-11T05:32:13.340Z,12.07
2019-05-11T05:34:40.960Z,12.93
2019-05-11T05:37:10.383Z,13.20
2019-05-11T05:39:37.994Z,12.30
2019-05-11T05:42:05.618Z,13.70
2019-05-11T05:44:33.216Z,14.77
2019-05-11T05:47:00.885Z,14.23
2019-05-11T05:49:30.364Z,10.70
2019-05-11T05:51:59.087Z,13.30
2019-05-11T05:54:26.701Z,13.50
2019-05-11T05:56:54.304Z,15.23
2019-05-11T05:59:21.931Z,12.40
2019-05-11T06:01:49.526Z,12.03
2019-05-11T06:04:17.209Z,13.13
2019-05-11T06:06:46.621Z,13.20
2019-05-11T06:09:16.032Z,14.27
2019-05-11T06:11:44.184Z,13.03
2019-05-11T06:14:11.799Z,12.33
2019-05-11T06:16:39.444Z,13.30
2019-05-11T06:19:07.278Z,12.83
2019-05-11T06:21:34.924Z,14.13
2019-05-11T06:24:06.563Z,12.30
2019-05-11T06:26:33.820Z,14.00
2019-05-11T06:29:01.492Z,12.50
2019-05-11T06:31:30.926Z,13.97
2019-05-11T06:33:58.559Z,13.20
2019-05-11T06:36:26.153Z,12.77
2019-05-11T06:38:53.831Z,14.37
2019-05-11T06:41:21.456Z,13.13
2019-05-11T06:44:01.414Z,12.53
2019-05-11T06:46:18.585Z,14.13
2019-05-11T06:48:46.240Z,12.90
2019-05-11T06:51:13.867Z,15.80
2019-05-11T06:53:41.819Z,14.03
2019-05-11T06:56:09.365Z,13.77
2019-05-11T06:58:36.970Z,15.93
2019-05-11T07:01:04.845Z,16.30
2019-05-11T07:03:32.558Z,17.53
2019-05-11T07:06:00.186Z,16.13
2019-05-11T07:08:27.893Z,17.90
2019-05-11T07:10:55.508Z,18.67
2019-05-11T07:13:23.151Z,17.57
2019-05-11T07:15:52.658Z,20.00
2019-05-11T07:18:21.387Z,17.90
2019-05-11T07:20:50.781Z,18.77
2019-05-11T07:23:18.706Z,17.93
2019-05-11T07:25:47.339Z,19.77
2019-05-11T07:28:15.073Z,19.57
2019-05-11T07:30:43.699Z,20.43
2019-05-11T07:33:11.233Z,17.67
2019-05-11T07:35:38.956Z,19.17
2019-05-11T07:38:08.338Z,20.43
2019-05-11T07:40:38.486Z,16.63
2019-05-11T07:43:07.367Z,18.20
2019-05-11T07:45:35.324Z,16.13
2019-05-11T07:48:02.987Z,17.53
2019-05-11T07:50:30.595Z,15.60
2019-05-11T07:52:58.993Z,14.93
2019-05-11T07:55:28.237Z,13.33
2019-05-11T07:57:58.392Z,14.30
2019-05-11T08:00:27.878Z,16.17
2019-05-11T08:02:54.878Z,13.37
2019-05-11T08:05:23.633Z,13.03
2019-05-11T08:07:51.240Z,13.50
2019-05-11T08:10:19.075Z,11.80
2019-05-11T08:12:48.071Z,12.43
2019-05-11T08:15:18.156Z,18.43
2019-05-11T08:17:45.390Z,13.27
2019-05-11T08:20:13.166Z,11.03
2019-05-11T08:22:40.831Z,13.83
2019-05-11T08:25:09.287Z,11.33
2019-05-11T08:27:38.228Z,10.40
2019-05-11T08:30:08.475Z,9.80
2019-05-11T08:32:38.552Z,9.30
2019-05-11T08:35:08.394Z,12.20
2019-05-11T08:37:36.033Z,8.70
2019-05-11T08:40:04.134Z,9.43
2019-05-11T08:42:31.719Z,11.10
2019-05-11T08:45:15.316Z,11.50
2019-05-11T08:47:28.711Z,10.20
2019-05-11T08:49:58.755Z,10.30
2019-05-11T08:52:27.898Z,9.73
2019-05-11T08:54:57.617Z,11.57
2019-05-11T08:57:24.817Z,11.03
2019-05-11T08:59:52.417Z,9.90
2019-05-11T09:02:20.075Z,9.97
2019-05-11T09:04:48.365Z,9.97
2019-05-11T09:07:18.282Z,9.80
2019-05-11T09:09:47.827Z,9.17
2019-05-11T09:12:15.246Z,9.17
2019-05-11T09:14:42.863Z,8.13
2019-05-11T09:17:10.722Z,11.83
2019-05-11T09:19:38.903Z,9.40
2019-05-11T09:22:08.320Z,11.47
2019-05-11T09:24:38.461Z,10.23
2019-05-11T09:27:07.815Z,10.37
2019-05-11T09:29:38.532Z,9.53
2019-05-11T09:32:08.827Z,11.47
2019-05-11T09:34:37.789Z,9.80
2019-05-11T09:37:07.921Z,8.67
2019-05-11T09:39:37.868Z,8.80
2019-05-11T09:42:07.611Z,9.43
2019-05-11T09:44:34.793Z,9.57
2019-05-11T09:47:03.534Z,10.77
2019-05-11T09:49:43.751Z,11.87
2019-05-11T09:52:02.750Z,10.17
2019-05-11T09:54:30.401Z,11.03
2019-05-11T09:56:58.119Z,10.87
2019-05-11T09:59:28.012Z,10.73
2019-05-11T10:01:55.316Z,10.00
2019-05-11T10:04:23.084Z,9.67
2019-05-11T10:06:50.695Z,8.17
2019-05-11T10:09:18.766Z,11.53
2019-05-11T10:11:48.032Z,9.90
2019-05-11T10:14:15.847Z,9.13
2019-05-11T10:16:43.575Z,9.40
2019-05-11T10:19:11.237Z,9.07
2019-05-11T10:21:38.881Z,10.40
2019-05-11T10:24:08.482Z,10.37
2019-05-11T10:26:38.264Z,8.83
2019-05-11T10:29:07.723Z,8.17
2019-05-11T10:31:34.945Z,7.83
2019-05-11T10:34:03.632Z,8.63
2019-05-11T10:36:31.385Z,6.03
2019-05-11T10:38:59.214Z,9.20
2019-05-11T10:41:28.461Z,8.43
2019-05-11T10:43:58.076Z,9.00
2019-05-11T10:46:25.796Z,10.77
2019-05-11T10:48:53.392Z,11.13
2019-05-11T10:51:21.015Z,9.53
2019-05-11T10:53:52.114Z,6.73
2019-05-11T10:56:21.586Z,9.23
2019-05-11T10:58:49.220Z,9.00
2019-05-11T11:01:18.133Z,9.43
2019-05-11T11:03:48.134Z,7.80
2019-05-11T11:06:15.487Z,8.03
2019-05-11T11:08:43.061Z,7.90
2019-05-11T11:11:10.792Z,8.47
2019-05-11T11:13:38.774Z,9.07
2019-05-11T11:16:08.372Z,8.70
2019-05-11T11:18:38.124Z,6.67
2019-05-11T11:21:08.497Z,7.87
2019-05-11T11:23:35.513Z,6.07
2019-05-11T11:26:03.203Z,6.20
2019-05-11T11:28:30.893Z,7.83
2019-05-11T11:30:58.555Z,7.87
2019-05-11T11:33:27.724Z,5.87
2019-05-11T11:35:57.783Z,9.13
2019-05-11T11:38:24.838Z,9.40
2019-05-11T11:40:52.434Z,6.93
2019-05-11T11:43:20.142Z,6.33
2019-05-11T11:45:48.465Z,10.30
2019-05-11T11:48:18.954Z,10.73
2019-05-11T11:50:48.039Z,7.77
2019-05-11T11:53:15.857Z,9.17
2019-05-11T11:55:43.487Z,7.77
2019-05-11T11:58:11.092Z,7.50
2019-05-11T12:00:39.200Z,9.47
2019-05-11T12:03:08.720Z,9.50
2019-05-11T12:05:38.576Z,7.23
2019-05-11T12:08:08.299Z,7.13
2019-05-11T12:10:37.807Z,6.07
2019-05-11T12:13:05.345Z,7.97
2019-05-11T12:15:34.159Z,9.23
2019-05-11T12:18:01.970Z,7.40
2019-05-11T12:20:29.668Z,7.80
2019-05-11T12:22:58.143Z,9.03
2019-05-11T12:25:27.764Z,9.93
2019-05-11T12:27:57.562Z,7.60
2019-05-11T12:30:24.988Z,7.33
2019-05-11T12:32:52.586Z,7.73
2019-05-11T12:35:21.500Z,9.73
2019-05-11T12:37:49.262Z,9.17
2019-05-11T12:40:18.388Z,11.10
2019-05-11T12:42:48.641Z,8.90
2019-05-11T12:45:18.189Z,10.83
2019-05-11T12:47:48.044Z,8.23
2019-05-11T12:50:18.616Z,10.07
2019-05-11T12:52:47.705Z,7.93
2019-05-11T12:55:17.733Z,8.47
2019-05-11T12:57:45.124Z,8.77
2019-05-11T13:00:13.774Z,9.27
2019-05-11T13:02:41.388Z,10.50
2019-05-11T13:05:09.114Z,8.03
2019-05-11T13:07:39.275Z,9.57
2019-05-11T13:10:08.326Z,9.87
2019-05-11T13:12:38.386Z,8.63
2019-05-11T13:15:08.095Z,10.00
2019-05-11T13:17:38.362Z,9.83
2019-05-11T13:20:05.297Z,8.97
2019-05-11T13:22:32.964Z,12.87
2019-05-11T13:25:00.606Z,6.33
2019-05-11T13:27:30.044Z,7.10
2019-05-11T13:29:59.203Z,8.07
2019-05-11T13:32:28.225Z,10.30
2019-05-11T13:34:58.341Z,10.67
2019-05-11T13:37:28.146Z,9.53
2019-05-11T13:39:55.071Z,10.30
2019-05-11T13:42:23.312Z,9.47
2019-05-11T13:44:51.015Z,8.50
2019-05-11T13:47:18.787Z,7.57
2019-05-11T13:49:47.926Z,8.10
2019-05-11T13:52:18.063Z,7.07
2019-05-11T13:54:48.214Z,8.03
2019-05-11T13:57:18.014Z,7.17
2019-05-11T13:59:47.593Z,9.07
2019-05-11T14:02:14.989Z,7.47
2019-05-11T14:04:43.662Z,7.73
2019-05-11T14:07:12.211Z,8.30
2019-05-11T14:09:39.839Z,8.53
2019-05-11T14:12:07.826Z,9.17
2019-05-11T14:14:37.597Z,7.87
2019-05-11T14:17:05.011Z,8.83
2019-05-11T14:19:32.756Z,8.70
2019-05-11T14:22:00.411Z,6.83
2019-05-11T14:24:29.137Z,8.03
2019-05-11T14:26:57.893Z,8.10
2019-05-11T14:29:28.116Z,7.97
2019-05-11T14:31:57.385Z,9.20
2019-05-11T14:34:24.883Z,10.57
2019-05-11T14:36:52.497Z,6.57
2019-05-11T14:39:20.144Z,8.27
2019-05-11T14:41:48.748Z,8.67
2019-05-11T14:44:18.148Z,7.97
2019-05-11T14:46:47.834Z,7.57
2019-05-11T14:49:15.546Z,8.03
2019-05-11T14:51:43.148Z,7.13
2019-05-11T14:54:10.790Z,9.40
2019-05-11T14:56:39.534Z,11.27
2019-05-11T14:59:08.891Z,7.10
2019-05-11T15:01:38.190Z,7.07
2019-05-11T15:04:05.988Z,7.20
2019-05-11T15:06:33.778Z,7.87
2019-05-11T15:09:01.500Z,7.87
2019-05-11T15:11:32.144Z,8.13
2019-05-11T15:13:59.685Z,7.63
2019-05-11T15:16:27.882Z,9.63
2019-05-11T15:18:55.934Z,7.77
2019-05-11T15:21:23.586Z,8.67
2019-05-11T15:23:52.620Z,8.30
2019-05-11T15:26:20.256Z,9.10
2019-05-11T15:28:48.581Z,8.57
2019-05-11T15:31:21.942Z,9.03
2019-05-11T15:33:45.953Z,7.30
2019-05-11T15:36:13.592Z,9.07
2019-05-11T15:38:42.406Z,7.70
2019-05-11T15:41:09.940Z,9.47
2019-05-11T15:43:39.350Z,6.60
2019-05-11T15:46:06.982Z,10.57
2019-05-11T15:48:34.796Z,8.13
2019-05-11T15:51:02.715Z,10.70
2019-05-11T15:53:30.719Z,10.73
2019-05-11T15:55:59.829Z,18.63
2019-05-11T15:58:29.132Z,21.70
2019-05-11T16:00:58.757Z,10.47
2019-05-11T16:03:26.845Z,8.67
2019-05-11T16:05:55.611Z,9.17
2019-05-11T16:08:23.503Z,15.87
2019-05-11T16:10:51.309Z,13.00
2019-05-11T16:13:18.927Z,9.97
2019-05-11T16:15:47.694Z,13.43
2019-05-11T16:18:16.090Z,19.73
2019-05-11T16:20:43.927Z,12.93
2019-05-11T16:23:11.753Z,8.83
2019-05-11T16:25:41.005Z,7.70
2019-05-11T16:28:10.453Z,6.60
2019-05-11T16:30:38.126Z,9.07
2019-05-11T16:33:05.965Z,7.07
2019-05-11T16:35:33.645Z,9.63
2019-05-11T16:38:01.311Z,13.60
2019-05-11T16:40:29.518Z,10.07
2019-05-11T16:42:58.789Z,7.90
2019-05-11T16:45:28.145Z,6.97
2019-05-11T16:47:58.660Z,8.10
2019-05-11T16:50:28.072Z,8.00
2019-05-11T16:52:55.386Z,12.03
2019-05-11T16:55:23.163Z,8.63
2019-05-11T16:57:50.973Z,7.83
2019-05-11T17:00:19.475Z,8.83
2019-05-11T17:02:49.036Z,8.07
2019-05-11T17:05:25.766Z,7.87
2019-05-11T17:07:48.130Z,9.67
2019-05-11T17:10:18.113Z,9.33
2019-05-11T17:12:48.318Z,7.73
2019-05-11T17:15:18.538Z,10.27
2019-05-11T17:17:48.383Z,7.50
2019-05-11T17:20:18.640Z,6.90
2019-05-11T17:22:47.975Z,7.77
2019-05-11T17:25:15.676Z,10.60
2019-05-11T17:27:43.323Z,7.60
2019-05-11T17:30:11.206Z,8.53
2019-05-11T17:32:38.959Z,10.17
2019-05-11T17:35:08.411Z,10.60
2019-05-11T17:37:38.123Z,11.70
2019-05-11T17:40:08.846Z,8.77
2019-05-11T17:42:37.853Z,8.00
2019-05-11T17:45:08.083Z,8.90
2019-05-11T17:47:38.670Z,8.97
2019-05-11T17:50:08.124Z,8.53
2019-05-11T17:52:35.620Z,8.57
2019-05-11T17:55:03.696Z,7.17
2019-05-11T17:57:31.286Z,7.37
2019-05-11T18:00:02.128Z,9.17
2019-05-11T18:02:29.323Z,6.87
2019-05-11T18:04:58.389Z,10.07
2019-05-11T18:07:28.427Z,5.47
2019-05-11T18:09:58.151Z,7.60
2019-05-11T18:12:28.393Z,8.50
2019-05-11T18:14:58.592Z,9.03
2019-05-11T18:17:24.778Z,9.57
2019-05-11T18:19:54.380Z,7.43
2019-05-11T18:22:22.360Z,7.57
2019-05-11T18:24:50.378Z,9.80
2019-05-11T18:27:18.544Z,11.00
2019-05-11T18:29:48.465Z,8.73
2019-05-11T18:32:16.023Z,8.90
2019-05-11T18:34:43.966Z,8.90
2019-05-11T18:37:11.593Z,7.07
2019-05-11T18:39:39.423Z,10.13
2019-05-11T18:42:08.281Z,8.07
2019-05-11T18:44:37.976Z,8.10
2019-05-11T18:47:08.795Z,10.47
2019-05-11T18:49:38.154Z,8.97
2019-05-11T18:52:08.242Z,10.33
2019-05-11T18:54:37.980Z,10.63
2019-05-11T18:57:08.010Z,8.50
2019-05-11T18:59:37.366Z,7.33
2019-05-11T19:02:11.149Z,8.73
2019-05-11T19:04:39.029Z,10.83
2019-05-11T19:07:16.173Z,8.37
2019-05-11T19:09:37.933Z,11.70
2019-05-11T19:12:08.393Z,8.83
2019-05-11T19:14:35.373Z,10.87
2019-05-11T19:17:03.250Z,12.57
2019-05-11T19:19:32.012Z,9.60
2019-05-11T19:21:59.750Z,10.43
2019-05-11T19:24:27.865Z,8.90
2019-05-11T19:26:55.542Z,9.93
2019-05-11T19:29:23.438Z,8.43
2019-05-11T19:31:51.193Z,10.33
2019-05-11T19:34:20.372Z,9.80
2019-05-11T19:36:48.652Z,9.57
2019-05-11T19:39:19.164Z,8.10
2019-05-11T19:41:45.963Z,8.63
2019-05-11T19:44:13.709Z,9.00
2019-05-11T19:46:41.352Z,8.70
2019-05-11T19:49:09.010Z,10.50
2019-05-11T19:51:42.070Z,7.77
2019-05-11T19:54:08.419Z,9.80
2019-05-11T19:56:38.413Z,11.23
2019-05-11T19:59:08.405Z,10.10
2019-05-11T20:01:35.815Z,8.70
2019-05-11T20:04:03.599Z,13.03
2019-05-11T20:06:31.498Z,8.40
2019-05-11T20:08:59.701Z,9.63
2019-05-11T20:11:28.001Z,8.60
2019-05-11T20:13:58.779Z,9.07
2019-05-11T20:16:25.917Z,7.90
2019-05-11T20:18:53.625Z,8.17
2019-05-11T20:21:23.062Z,11.70
2019-05-11T20:23:51.154Z,8.53
2019-05-11T20:26:18.879Z,8.53
2019-05-11T20:28:48.269Z,9.57
2019-05-11T20:31:18.415Z,9.23
2019-05-11T20:33:47.687Z,7.80
2019-05-11T20:36:17.647Z,8.77
2019-05-11T20:38:47.635Z,8.57
2019-05-11T20:41:15.407Z,10.30
2019-05-11T20:43:43.503Z,9.37
2019-05-11T20:46:11.121Z,7.87
2019-05-11T20:48:38.789Z,7.93
2019-05-11T20:51:08.161Z,10.13
2019-05-11T20:53:36.046Z,8.20
2019-05-11T20:56:04.046Z,10.10
2019-05-11T20:58:52.579Z,9.17
2019-05-11T21:01:21.596Z,8.80
2019-05-11T21:03:49.463Z,8.33
2019-05-11T21:06:18.471Z,7.13
2019-05-11T21:08:48.189Z,8.83
2019-05-11T21:11:17.973Z,5.03
2019-05-11T21:13:47.599Z,6.63
2019-05-11T21:16:15.053Z,5.93
2019-05-11T21:18:42.708Z,5.47
2019-05-11T21:21:10.405Z,6.20
2019-05-11T21:23:40.702Z,4.60
2019-05-11T21:26:09.916Z,6.70
2019-05-11T21:28:38.083Z,5.93
2019-05-11T21:31:08.037Z,6.60
2019-05-11T21:33:37.664Z,7.47
2019-05-11T21:36:05.249Z,7.20
2019-05-11T21:38:33.072Z,9.83
2019-05-11T21:41:01.168Z,6.13
2019-05-11T21:43:28.837Z,6.67
2019-05-11T21:45:58.165Z,6.10
2019-05-11T21:48:27.942Z,10.80
2019-05-11T21:50:55.504Z,8.17
2019-05-11T21:53:24.745Z,5.87
2019-05-11T21:55:52.372Z,8.40
2019-05-11T21:58:19.987Z,11.17
2019-05-11T22:00:49.307Z,6.83
2019-05-11T22:03:18.960Z,3.90
2019-05-11T22:05:48.478Z,6.20
2019-05-11T22:08:17.819Z,6.70
2019-05-11T22:10:45.707Z,8.70
2019-05-11T22:13:13.318Z,7.30
2019-05-11T22:15:41.189Z,10.47
2019-05-11T22:18:08.876Z,5.13
2019-05-11T22:20:38.021Z,5.93
2019-05-11T22:23:08.252Z,7.10
2019-05-11T22:25:37.978Z,5.97
2019-05-11T22:28:05.183Z,4.47
2019-05-11T22:30:32.840Z,8.13
2019-05-11T22:33:00.524Z,7.13
2019-05-11T22:35:28.577Z,6.73
2019-05-11T22:37:57.835Z,5.33
2019-05-11T22:40:27.813Z,8.10
2019-05-11T22:42:54.939Z,5.27
2019-05-11T22:45:22.636Z,6.27
2019-05-11T22:47:50.275Z,5.57
2019-05-11T22:50:18.598Z,8.50
2019-05-11T22:52:48.374Z,6.10
2019-05-11T22:55:18.787Z,8.07
2019-05-11T22:57:48.523Z,4.37
2019-05-11T23:00:20.551Z,7.27
2019-05-11T23:02:48.494Z,6.83
2019-05-11T23:05:16.119Z,6.23
2019-05-11T23:07:43.844Z,5.73
2019-05-11T23:10:11.706Z,6.63
2019-05-11T23:12:39.804Z,7.87
2019-05-11T23:15:14.009Z,7.37
2019-05-11T23:17:42.234Z,6.97
2019-05-11T23:20:10.506Z,5.13
2019-05-11T23:22:56.850Z,4.97
2019-05-11T23:25:18.775Z,5.57
2019-05-11T23:27:48.624Z,7.97
2019-05-11T23:30:19.368Z,7.17
2019-05-11T23:32:48.491Z,5.17
2019-05-11T23:35:18.436Z,6.53
2019-05-11T23:37:49.641Z,10.20
2019-05-11T23:40:18.224Z,5.87
2019-05-11T23:42:48.656Z,10.47
2019-05-11T23:45:15.432Z,6.53
2019-05-11T23:47:43.040Z,5.63
2019-05-11T23:50:12.853Z,5.97
2019-05-11T23:52:40.476Z,5.93
2019-05-11T23:55:08.555Z,9.13
2019-05-11T23:57:37.889Z,9.13
